< < Back
Terminal Aerodrome Forecast


Current Version              Previous Versions:   1  2  3  4  5  6  7  8  9  

Terminal Aerodrome Forecast

501
FTUS42 KTAE 161500 AAB
TAFABY
TAF AMD
KABY 161539Z 1616/1712 08011KT P6SM SKC
     FM161700 08011G18KT P6SM SKC
     FM162200 08009KT P6SM SCT250
     FM170900 05011KT P6SM BKN025=

Latest METAR

237
SAUS70 KWBC 161900 RRB
MTRABY
METAR KABY 161853Z 07007G16KT 10SM CLR 17/01 A3024 RMK AO2 SLP239
T01720011


USA.gov is the U.S. government's official web portal to all federal, state and local government web resources and services.